Pierre, South Dakota
Current Conditions -  °F | °C
As of 10:53 AM on Tuesday 27 Jan 2015 (Local Time) from KPIR Reporting Station
Clear Clear  
Wind Chill:   Ceiling: Unl
Heat Index:   Visibility: 10mi
Dew Point:   Wind: 7mph
Humidity: 77%   Direction: 150°SSE
Pressure: 29.94"   Gusts: NA
Location:  44.37°N, 100.35°W
Report Text: KPIR 271653Z AUTO 15006KT 10SM CLR 04/01 A2994 RMK AO2 SLP153 T00440006
Loading
Personal Weather Stations






























Interactive Weather Map New forecast layout! Learn more

10-Day Weather Forecast

Advertisements
Track Severe Weather on mobile